Time;durP1;ratioP1;P1;durP2;ratioP2;P2;SDS_P1;SDS_P2;PMS_P1;PMS_P2;Temp;Humidity;BMP_temperature;BMP_pressure;BME280_temperature;BME280_humidity;BME280_pressure;Samples;Min_cycle;Max_cycle;Signal;HPM_P1;HPM_P2
2022/01/20 00:00:49;;;;;;;4.20;3.50;;;2.60;99.90;;;;;;5054975;28;20611;-85
2022/01/20 00:03:21;;;;;;;4.10;3.70;;;2.60;99.90;;;;;;5048263;28;20177;-82
2022/01/20 00:08:49;;;;;;;4.30;3.70;;;2.80;99.90;;;;;;5063362;28;20260;-86
2022/01/20 00:27:50;;;;;;;3.90;3.50;;;2.60;99.90;;;;;;5061769;28;20264;-85
2022/01/20 00:33:17;;;;;;;3.20;2.90;;;2.60;99.90;;;;;;5052478;28;20779;-84
2022/01/20 00:38:28;;;;;;;3.80;3.27;;;3.00;99.90;;;;;;5049582;28;20226;-85
2022/01/20 00:40:54;;;;;;;4.67;3.47;;;2.60;99.90;;;;;;5043301;28;20189;-85
2022/01/20 00:43:20;;;;;;;4.20;3.80;;;2.50;99.90;;;;;;5044422;28;20245;-85
2022/01/20 00:45:47;;;;;;;4.87;3.73;;;2.70;99.90;;;;;;5044362;28;20198;-82
2022/01/20 00:48:12;;;;;;;4.80;3.33;;;2.60;99.90;;;;;;5061643;28;20175;-84
2022/01/20 00:50:38;;;;;;;4.73;3.77;;;2.60;99.90;;;;;;5042269;28;20174;-83
2022/01/20 00:53:04;;;;;;;3.83;3.43;;;2.60;99.90;;;;;;5040579;28;20281;-84
2022/01/20 00:55:31;;;;;;;4.27;3.70;;;2.90;99.90;;;;;;5053740;28;20563;-83
2022/01/20 00:57:57;;;;;;;4.70;3.17;;;2.60;99.90;;;;;;5062441;28;20223;-84
2022/01/20 01:00:22;;;;;;;3.57;3.23;;;2.60;99.90;;;;;;5032844;28;20258;-84
2022/01/20 01:02:48;;;;;;;3.67;3.30;;;3.70;99.90;;;;;;5062525;28;20182;-85
2022/01/20 01:05:14;;;;;;;4.27;3.70;;;2.60;99.90;;;;;;5061568;28;20174;-86
2022/01/20 01:07:48;;;;;;;4.37;3.97;;;2.80;99.90;;;;;;5060827;28;20187;-85
2022/01/20 01:10:17;;;;;;;3.80;3.40;;;2.60;99.90;;;;;;5044301;28;20170;-85
2022/01/20 01:12:57;;;;;;;4.07;3.23;;;2.60;99.90;;;;;;5061741;28;20571;-85
2022/01/20 01:15:29;;;;;;;3.53;3.23;;;2.70;99.90;;;;;;5044404;28;20220;-85
2022/01/20 01:23:12;;;;;;;3.73;3.40;;;2.50;99.90;;;;;;5060437;28;20212;-85
2022/01/20 01:25:38;;;;;;;3.60;3.30;;;2.70;99.90;;;;;;5061756;28;20195;-84
2022/01/20 01:28:04;;;;;;;4.97;3.40;;;2.80;99.90;;;;;;5060165;28;20208;-84
2022/01/20 01:30:47;;;;;;;3.77;3.37;;;2.70;99.90;;;;;;5060494;28;20179;-85
2022/01/20 01:33:13;;;;;;;3.80;3.40;;;2.70;99.90;;;;;;5061427;28;20254;-85
2022/01/20 01:35:41;;;;;;;3.40;3.10;;;2.70;99.90;;;;;;5056380;28;20207;-85
2022/01/20 01:40:36;;;;;;;3.53;3.20;;;2.60;99.90;;;;;;5065213;28;20668;-84
2022/01/20 01:43:07;;;;;;;3.77;3.40;;;2.60;99.90;;;;;;5067358;28;20220;-83
2022/01/20 01:45:36;;;;;;;4.23;3.30;;;2.60;99.90;;;;;;5062691;28;20204;-86
2022/01/20 01:48:03;;;;;;;4.10;3.63;;;2.60;99.90;;;;;;5040439;28;20194;-83
2022/01/20 01:50:30;;;;;;;4.10;3.70;;;2.60;99.90;;;;;;5058292;28;20661;-85
2022/01/20 01:52:57;;;;;;;4.77;4.27;;;2.60;99.90;;;;;;5055021;28;20185;-84
2022/01/20 01:55:24;;;;;;;4.40;3.80;;;2.60;99.90;;;;;;5039721;28;20221;-85
2022/01/20 01:57:50;;;;;;;4.97;4.07;;;2.70;99.90;;;;;;5040890;28;20181;-85
2022/01/20 02:00:18;;;;;;;4.23;3.73;;;2.60;99.90;;;;;;5046586;28;20288;-84
2022/01/20 02:02:44;;;;;;;5.03;4.53;;;2.50;99.90;;;;;;5040969;28;20179;-85
2022/01/20 02:05:13;;;;;;;4.93;4.43;;;2.40;99.90;;;;;;5041594;28;20186;-85
2022/01/20 02:18:42;;;;;;;5.23;4.47;;;2.20;99.90;;;;;;5060324;28;20256;-84
2022/01/20 02:21:08;;;;;;;5.90;4.83;;;2.20;99.90;;;;;;5059039;28;20170;-86
2022/01/20 02:23:34;;;;;;;4.87;4.30;;;2.20;99.90;;;;;;5065001;28;20252;-84
2022/01/20 02:26:00;;;;;;;5.60;4.73;;;2.10;99.90;;;;;;5048299;28;20197;-85
2022/01/20 02:28:27;;;;;;;8.47;5.37;;;2.10;99.90;;;;;;5043806;28;20182;-84
2022/01/20 02:30:53;;;;;;;6.97;5.40;;;1.90;99.90;;;;;;5061344;28;20170;-84
2022/01/20 02:33:21;;;;;;;5.57;5.03;;;1.90;99.90;;;;;;5062890;28;20190;-85
2022/01/20 02:35:50;;;;;;;6.63;6.03;;;1.90;99.90;;;;;;5039729;28;20308;-85
2022/01/20 02:38:30;;;;;;;7.50;4.67;;;1.90;99.90;;;;;;5054767;28;20643;-85
2022/01/20 02:46:25;;;;;;;5.13;4.63;;;1.80;99.90;;;;;;5058393;28;20204;-84
2022/01/20 02:48:50;;;;;;;5.60;5.10;;;1.80;99.90;;;;;;5058140;28;20240;-84
2022/01/20 02:51:22;;;;;;;4.90;4.33;;;1.70;99.90;;;;;;5038726;28;20639;-84
2022/01/20 02:53:48;;;;;;;5.10;4.63;;;2.00;99.90;;;;;;5059714;28;20190;-84
2022/01/20 02:56:14;;;;;;;4.63;4.23;;;1.80;99.90;;;;;;5038308;28;20284;-84
2022/01/20 02:58:39;;;;;;;4.60;4.20;;;1.70;99.90;;;;;;5055304;28;20186;-84
2022/01/20 03:01:05;;;;;;;6.17;5.13;;;1.80;99.90;;;;;;5052938;28;20754;-84
2022/01/20 03:03:31;;;;;;;5.23;4.73;;;1.80;99.90;;;;;;5059428;28;20181;-82
2022/01/20 03:05:57;;;;;;;4.80;4.30;;;1.80;99.90;;;;;;5061225;28;20208;-84
2022/01/20 03:08:25;;;;;;;5.23;4.73;;;2.50;99.90;;;;;;5053540;28;20235;-84
2022/01/20 03:10:53;;;;;;;5.30;4.80;;;2.10;99.90;;;;;;5039089;28;20177;-84
2022/01/20 03:13:21;;;;;;;4.90;4.40;;;2.60;99.90;;;;;;5037966;28;20276;-84
2022/01/20 03:15:47;;;;;;;5.60;5.00;;;1.60;99.90;;;;;;5057763;28;20201;-84
2022/01/20 03:18:13;;;;;;;5.43;4.93;;;1.70;99.90;;;;;;5057467;28;20170;-84
2022/01/20 03:20:42;;;;;;;5.70;5.10;;;1.50;99.90;;;;;;5056855;28;20170;-84
2022/01/20 03:23:08;;;;;;;5.90;5.30;;;1.60;99.90;;;;;;5039051;28;20231;-84
2022/01/20 03:25:33;;;;;;;6.37;5.50;;;1.50;99.90;;;;;;5055257;28;20280;-83
2022/01/20 03:27:59;;;;;;;6.07;5.47;;;1.50;99.90;;;;;;5055238;28;20185;-84
2022/01/20 03:30:26;;;;;;;6.80;6.10;;;1.50;99.90;;;;;;5057709;28;20184;-83
2022/01/20 03:32:52;;;;;;;6.30;5.70;;;1.60;99.90;;;;;;5058755;28;20667;-84
2022/01/20 03:35:18;;;;;;;6.57;5.30;;;1.60;99.90;;;;;;5058748;28;20184;-83
2022/01/20 03:37:44;;;;;;;6.37;5.77;;;1.90;99.90;;;;;;5059833;28;20185;-83
2022/01/20 03:40:11;;;;;;;5.37;4.87;;;1.50;99.90;;;;;;5057562;28;20209;-83
2022/01/20 03:42:37;;;;;;;6.37;5.77;;;1.50;99.90;;;;;;5058993;28;20218;-83
2022/01/20 03:45:04;;;;;;;6.90;6.30;;;1.60;99.90;;;;;;5041412;28;20181;-83
2022/01/20 03:47:30;;;;;;;6.30;5.70;;;1.40;99.90;;;;;;5025497;28;20185;-82
2022/01/20 03:52:25;;;;;;;7.60;6.90;;;2.30;99.90;;;;;;5058099;28;20194;-83
2022/01/20 03:54:51;;;;;;;7.17;6.27;;;1.40;99.90;;;;;;5058583;28;20663;-83
2022/01/20 03:57:17;;;;;;;7.40;6.60;;;1.80;99.90;;;;;;5057340;28;20201;-83
2022/01/20 03:59:43;;;;;;;7.47;6.63;;;1.40;99.90;;;;;;5045600;28;20698;-83
2022/01/20 04:02:09;;;;;;;7.47;5.93;;;1.40;99.90;;;;;;5031138;28;20245;-84
2022/01/20 04:04:35;;;;;;;5.80;5.30;;;1.50;99.90;;;;;;5059301;28;20631;-84
2022/01/20 04:07:01;;;;;;;6.80;5.87;;;1.50;99.90;;;;;;5041002;28;20579;-84
2022/01/20 04:09:27;;;;;;;6.87;6.03;;;1.50;99.90;;;;;;5040307;28;20686;-84
2022/01/20 04:11:53;;;;;;;7.27;5.80;;;1.50;99.90;;;;;;5039994;28;20193;-84
2022/01/20 04:14:21;;;;;;;6.30;5.70;;;1.60;99.90;;;;;;5057277;28;20166;-84
2022/01/20 04:19:22;;;;;;;5.37;4.87;;;1.60;99.90;;;;;;5057784;28;20192;-84
2022/01/20 04:21:48;;;;;;;6.30;5.77;;;1.60;99.90;;;;;;5058519;28;20543;-83
2022/01/20 04:24:15;;;;;;;5.83;5.27;;;1.60;99.90;;;;;;5038973;28;20563;-83
2022/01/20 04:26:43;;;;;;;6.03;5.37;;;1.60;99.90;;;;;;5057187;28;20718;-84
2022/01/20 04:29:11;;;;;;;5.40;4.90;;;2.30;99.90;;;;;;5043420;28;20178;-84
2022/01/20 04:31:38;;;;;;;4.67;4.20;;;1.60;99.90;;;;;;5057872;28;20165;-84
2022/01/20 04:34:05;;;;;;;5.30;4.80;;;1.50;99.90;;;;;;5039722;28;20721;-84
2022/01/20 04:36:34;;;;;;;5.50;5.00;;;1.50;99.90;;;;;;5040427;28;20263;-83
2022/01/20 04:39:01;;;;;;;7.23;4.73;;;2.00;99.90;;;;;;5041985;28;20178;-82
2022/01/20 04:41:29;;;;;;;5.43;4.93;;;1.60;99.90;;;;;;5042623;28;20671;-84
2022/01/20 04:43:59;;;;;;;5.47;4.97;;;1.60;99.90;;;;;;5061080;28;20244;-84
2022/01/20 04:46:35;;;;;;;4.33;3.87;;;1.60;99.90;;;;;;5041818;28;20676;-84
2022/01/20 04:57:29;;;;;;;5.23;4.73;;;1.70;99.90;;;;;;5050567;28;20273;-84
2022/01/20 04:59:54;;;;;;;6.50;4.37;;;1.70;99.90;;;;;;5056058;28;20673;-84
2022/01/20 05:02:22;;;;;;;4.70;4.30;;;1.60;99.90;;;;;;5058502;28;20182;-83
2022/01/20 05:04:48;;;;;;;5.70;4.80;;;1.60;99.90;;;;;;5061608;28;20174;-84
2022/01/20 05:07:18;;;;;;;5.33;4.83;;;1.60;99.90;;;;;;5063283;28;20279;-84
2022/01/20 05:09:44;;;;;;;4.87;4.47;;;1.70;99.90;;;;;;5060398;28;20174;-83
2022/01/20 05:12:13;;;;;;;5.00;4.50;;;1.60;99.90;;;;;;5060311;28;20224;-84
2022/01/20 05:14:39;;;;;;;5.60;4.57;;;1.60;99.90;;;;;;5061083;28;20173;-84
2022/01/20 05:17:05;;;;;;;6.10;5.13;;;1.70;99.90;;;;;;5043247;28;20228;-84
2022/01/20 05:19:32;;;;;;;4.67;4.27;;;1.70;99.90;;;;;;5053575;28;20186;-83
2022/01/20 05:21:59;;;;;;;6.27;4.90;;;1.60;99.90;;;;;;5038622;28;20624;-84
2022/01/20 05:24:25;;;;;;;5.13;4.63;;;1.70;99.90;;;;;;5044381;28;20174;-84
2022/01/20 05:26:52;;;;;;;5.27;4.63;;;1.70;99.90;;;;;;5043137;28;20202;-85
2022/01/20 05:29:19;;;;;;;5.17;4.67;;;1.70;99.90;;;;;;5050876;28;20180;-85
2022/01/20 05:31:45;;;;;;;5.10;4.70;;;1.70;99.90;;;;;;5060150;28;20668;-83
2022/01/20 05:34:11;;;;;;;8.10;4.87;;;1.70;99.90;;;;;;5060503;28;20173;-85
2022/01/20 05:36:37;;;;;;;5.30;4.57;;;2.80;99.90;;;;;;5060115;28;20190;-84
2022/01/20 05:39:03;;;;;;;5.57;5.07;;;2.40;99.90;;;;;;5061110;28;20201;-85
2022/01/20 05:41:29;;;;;;;6.03;5.13;;;1.70;99.90;;;;;;5043392;28;20166;-85
2022/01/20 05:43:56;;;;;;;6.70;5.90;;;1.80;99.90;;;;;;5047090;28;20232;-85
2022/01/20 05:46:25;;;;;;;5.40;4.90;;;1.70;99.90;;;;;;5029540;28;20280;-83
2022/01/20 05:48:50;;;;;;;5.77;4.87;;;1.70;99.90;;;;;;5044035;28;20272;-83
2022/01/20 05:51:18;;;;;;;5.57;5.03;;;1.80;99.90;;;;;;5061653;28;20232;-83
2022/01/20 05:53:44;;;;;;;5.87;5.27;;;1.80;99.90;;;;;;5054220;28;20288;-84
2022/01/20 05:56:09;;;;;;;6.37;5.20;;;1.70;99.90;;;;;;5060265;28;20286;-84
2022/01/20 05:58:36;;;;;;;6.03;4.60;;;1.70;99.90;;;;;;5041178;28;20204;-83
2022/01/20 06:01:06;;;;;;;5.53;5.03;;;1.70;99.90;;;;;;5043338;28;20182;-84
2022/01/20 06:03:37;;;;;;;7.03;5.33;;;1.70;99.90;;;;;;5042766;28;20189;-84
2022/01/20 06:06:04;;;;;;;6.57;5.73;;;1.70;99.90;;;;;;5056422;28;20263;-86
2022/01/20 06:08:31;;;;;;;6.10;5.50;;;1.70;99.90;;;;;;5051054;28;20174;-85
2022/01/20 06:10:57;;;;;;;4.87;4.47;;;2.10;99.90;;;;;;5052010;28;20178;-84
2022/01/20 06:13:22;;;;;;;6.30;5.67;;;1.70;99.90;;;;;;5048528;28;20586;-84
2022/01/20 06:15:48;;;;;;;6.47;5.47;;;1.70;99.90;;;;;;5058163;28;20208;-85
2022/01/20 06:18:14;;;;;;;5.17;4.67;;;2.10;99.90;;;;;;5040230;28;20185;-84
2022/01/20 06:20:41;;;;;;;5.33;4.83;;;1.90;99.90;;;;;;5039571;28;20190;-86
2022/01/20 06:23:08;;;;;;;5.93;5.40;;;1.70;99.90;;;;;;5060716;28;20188;-86
2022/01/20 06:25:34;;;;;;;6.90;5.30;;;1.60;99.90;;;;;;5061350;28;20240;-87
2022/01/20 06:28:01;;;;;;;5.83;5.33;;;1.60;99.90;;;;;;5042046;28;20213;-84
2022/01/20 06:30:27;;;;;;;7.00;5.30;;;1.60;99.90;;;;;;5051194;28;20526;-85
2022/01/20 06:32:53;;;;;;;5.97;5.47;;;1.70;99.90;;;;;;5060534;28;20288;-84
2022/01/20 06:46:32;;;;;;;5.67;5.07;;;0.90;99.90;;;;;;4902262;29;20248;-85
2022/01/20 06:49:18;;;;;;;5.83;5.33;;;0.70;99.90;;;;;;4954829;28;20192;-85
2022/01/20 06:51:50;;;;;;;6.47;5.87;;;2.20;99.90;;;;;;4982956;28;20188;-85
2022/01/20 06:54:19;;;;;;;6.43;5.23;;;2.40;99.90;;;;;;4983052;28;20179;-85
2022/01/20 06:56:56;;;;;;;6.07;5.47;;;2.80;99.90;;;;;;4976357;28;20882;-85
2022/01/20 06:59:39;;;;;;;5.80;5.20;;;2.70;99.90;;;;;;4999978;28;20159;-84
2022/01/20 07:02:05;;;;;;;5.83;5.33;;;1.80;99.90;;;;;;4981615;28;20623;-85
2022/01/20 07:04:33;;;;;;;6.17;5.60;;;1.80;99.90;;;;;;4981480;28;20176;-86
2022/01/20 07:07:03;;;;;;;6.07;5.57;;;3.10;99.90;;;;;;4993593;28;20234;-85
2022/01/20 07:09:33;;;;;;;5.50;5.00;;;1.90;99.90;;;;;;4996633;28;20183;-85
2022/01/20 07:12:02;;;;;;;6.40;5.80;;;2.80;99.90;;;;;;4978540;28;20187;-86
2022/01/20 07:14:31;;;;;;;7.00;6.30;;;1.90;99.90;;;;;;4981147;28;20187;-85
2022/01/20 07:17:18;;;;;;;6.43;5.90;;;1.90;99.90;;;;;;5001263;28;20195;-85
2022/01/20 07:19:44;;;;;;;6.70;6.10;;;1.80;99.90;;;;;;4979495;28;20176;-84
2022/01/20 07:22:15;;;;;;;6.60;6.00;;;1.80;99.90;;;;;;5001114;28;20172;-85
2022/01/20 07:28:39;;;;;;;6.10;5.53;;;1.10;99.90;;;;;;4998680;28;20214;-85
2022/01/20 07:31:10;;;;;;;6.20;5.60;;;1.90;99.90;;;;;;4991709;28;20546;-85
2022/01/20 07:33:44;;;;;;;5.90;5.40;;;2.80;99.90;;;;;;4982692;28;20190;-85
2022/01/20 07:36:10;;;;;;;6.33;5.83;;;3.20;99.90;;;;;;4996378;28;20274;-85
2022/01/20 07:38:38;;;;;;;6.17;5.67;;;2.60;99.90;;;;;;4980734;28;20195;-85
2022/01/20 07:41:04;;;;;;;6.07;5.53;;;2.60;99.90;;;;;;4982551;28;20182;-85
2022/01/20 07:43:35;;;;;;;6.13;5.63;;;1.90;99.90;;;;;;4983766;28;20258;-85
2022/01/20 07:46:04;;;;;;;5.67;5.17;;;1.90;99.90;;;;;;4982841;28;20261;-85
2022/01/20 07:48:35;;;;;;;5.50;5.00;;;1.90;99.90;;;;;;4981689;28;20168;-85
2022/01/20 07:51:05;;;;;;;4.87;4.47;;;1.90;99.90;;;;;;5002790;28;20204;-85
2022/01/20 07:53:35;;;;;;;5.30;4.80;;;1.00;99.90;;;;;;4996402;28;20195;-84
2022/01/20 07:56:10;;;;;;;5.93;5.33;;;2.60;99.90;;;;;;5006690;28;20204;-85
2022/01/20 07:58:37;;;;;;;5.27;4.70;;;2.80;99.90;;;;;;5012638;28;20199;-84
2022/01/20 08:01:09;;;;;;;4.70;4.30;;;2.70;99.90;;;;;;5007420;28;20172;-85
2022/01/20 08:03:34;;;;;;;4.83;4.43;;;2.00;99.90;;;;;;4998861;28;20176;-84
2022/01/20 08:06:00;;;;;;;5.33;4.83;;;3.20;99.90;;;;;;4978302;28;20234;-85
2022/01/20 08:08:29;;;;;;;4.83;4.33;;;3.30;99.90;;;;;;4976938;28;20244;-84
2022/01/20 08:10:54;;;;;;;4.53;4.13;;;2.00;99.90;;;;;;4982425;28;20247;-84
2022/01/20 08:13:23;;;;;;;4.40;4.00;;;3.10;99.90;;;;;;4995020;28;20231;-84
2022/01/20 08:15:49;;;;;;;4.63;4.23;;;2.00;99.90;;;;;;5003781;28;20251;-85
2022/01/20 08:18:15;;;;;;;4.60;4.17;;;2.10;99.90;;;;;;4991516;28;20181;-83
2022/01/20 08:20:40;;;;;;;4.50;4.10;;;3.20;99.90;;;;;;4999871;28;20184;-83
2022/01/20 08:23:34;;;;;;;;;;;;;;;;;;;;;
2022/01/20 08:26:00;;;;;;;6.03;4.10;;;2.10;99.90;;;;;;4997104;28;20291;-83
2022/01/20 08:28:25;;;;;;;4.50;4.10;;;3.30;99.90;;;;;;5006284;28;20208;-85
2022/01/20 08:31:02;;;;;;;3.97;3.67;;;2.10;99.90;;;;;;4989958;28;20255;-83
2022/01/20 08:33:28;;;;;;;4.30;3.90;;;2.10;99.90;;;;;;4987009;28;20260;-83
2022/01/20 08:35:57;;;;;;;4.70;4.30;;;2.10;99.90;;;;;;5003255;28;20235;-84
2022/01/20 08:38:22;;;;;;;4.20;3.80;;;2.70;99.90;;;;;;4985315;28;20182;-83
2022/01/20 08:40:48;;;;;;;4.30;3.90;;;2.30;99.90;;;;;;5001264;28;20635;-83
2022/01/20 08:43:20;;;;;;;5.77;4.17;;;2.90;99.90;;;;;;5001510;28;20180;-83
2022/01/20 08:45:47;;;;;;;3.97;3.60;;;2.20;99.90;;;;;;5002049;28;20349;-85
2022/01/20 08:48:13;;;;;;;4.17;3.50;;;3.70;99.90;;;;;;4985327;28;20190;-83
2022/01/20 08:50:40;;;;;;;4.07;3.53;;;2.30;99.90;;;;;;4999907;28;20572;-84
2022/01/20 08:53:06;;;;;;;4.17;3.80;;;2.30;99.90;;;;;;4985951;28;20259;-84
2022/01/20 08:55:33;;;;;;;4.90;3.67;;;2.30;99.90;;;;;;4989027;28;20302;-85
2022/01/20 08:58:00;;;;;;;3.80;3.50;;;3.10;99.90;;;;;;4991070;28;20172;-84
2022/01/20 09:00:28;;;;;;;4.20;3.80;;;2.40;99.90;;;;;;4987493;28;20173;-85
2022/01/20 09:02:54;;;;;;;4.33;3.97;;;2.30;99.90;;;;;;4998473;28;20183;-84
2022/01/20 09:05:21;;;;;;;5.37;4.60;;;2.40;99.90;;;;;;4998859;28;20203;-85
2022/01/20 09:07:46;;;;;;;5.20;4.77;;;2.60;99.90;;;;;;4985624;28;20663;-85
2022/01/20 09:10:19;;;;;;;5.57;3.53;;;2.30;99.90;;;;;;4998116;28;20179;-85
2022/01/20 09:15:28;;;;;;;4.67;4.10;;;2.40;99.90;;;;;;4991131;28;20659;-85
2022/01/20 09:18:12;;;;;;;4.60;4.20;;;2.40;99.90;;;;;;4983290;28;20222;-85
2022/01/20 09:20:38;;;;;;;4.00;3.60;;;2.40;99.90;;;;;;4984445;28;20187;-85
2022/01/20 09:23:05;;;;;;;4.43;4.03;;;2.50;99.90;;;;;;4991964;28;20175;-84
2022/01/20 09:25:31;;;;;;;3.97;3.67;;;2.40;99.90;;;;;;4996460;28;20263;-85
2022/01/20 09:27:56;;;;;;;3.73;3.33;;;2.40;99.90;;;;;;5001928;28;20266;-85
2022/01/20 09:30:25;;;;;;;4.00;3.60;;;3.20;99.90;;;;;;4982142;28;20219;-84
2022/01/20 09:35:30;;;;;;;4.47;4.07;;;2.50;99.90;;;;;;4995918;28;20694;-85
2022/01/20 09:37:57;;;;;;;4.87;4.47;;;2.50;99.90;;;;;;4984549;28;20187;-85
2022/01/20 09:40:22;;;;;;;4.47;3.83;;;2.60;99.90;;;;;;4988316;28;20192;-85
2022/01/20 09:42:48;;;;;;;4.23;3.83;;;2.50;99.90;;;;;;4981911;28;20180;-85
2022/01/20 09:45:15;;;;;;;4.40;4.00;;;2.80;99.90;;;;;;5004621;28;20182;-84
2022/01/20 09:47:43;;;;;;;3.70;3.40;;;2.60;99.90;;;;;;5004065;28;20175;-85
2022/01/20 09:50:10;;;;;;;5.47;4.60;;;2.70;99.90;;;;;;4985598;28;20594;-85
2022/01/20 09:52:36;;;;;;;4.50;4.10;;;2.70;99.90;;;;;;4988784;28;20201;-86
2022/01/20 09:57:33;;;;;;;4.40;4.00;;;2.70;99.90;;;;;;5049523;23;20226;-83
2022/01/20 10:00:00;;;;;;;4.60;4.10;;;2.80;99.90;;;;;;5041028;28;20443;-84
2022/01/20 10:02:25;;;;;;;5.17;4.67;;;2.80;99.90;;;;;;5025571;28;20174;-84
2022/01/20 10:04:52;;;;;;;4.73;4.33;;;2.70;99.90;;;;;;5043905;28;20179;-85
2022/01/20 10:07:18;;;;;;;5.10;4.70;;;2.80;99.90;;;;;;5018175;28;20279;-84
2022/01/20 10:09:47;;;;;;;5.10;4.60;;;3.30;99.90;;;;;;5016796;28;20637;-84
2022/01/20 10:12:16;;;;;;;4.80;4.17;;;3.00;99.90;;;;;;5033599;28;20293;-84
2022/01/20 10:14:55;;;;;;;4.70;4.30;;;3.00;99.90;;;;;;5026528;28;20559;-84
2022/01/20 10:17:27;;;;;;;4.57;4.17;;;3.00;99.90;;;;;;5020688;28;20191;-84
2022/01/20 10:19:58;;;;;;;4.37;3.57;;;3.00;99.90;;;;;;5020878;28;20578;-84
2022/01/20 10:22:25;;;;;;;4.90;4.40;;;3.10;99.90;;;;;;5018921;28;20195;-84
2022/01/20 10:25:02;;;;;;;4.40;4.00;;;3.70;99.90;;;;;;5040634;28;20182;-84
2022/01/20 10:27:30;;;;;;;4.30;3.90;;;3.10;99.90;;;;;;5030478;28;20212;-84
2022/01/20 10:30:16;;;;;;;4.80;4.40;;;3.50;99.90;;;;;;5017612;28;20182;-85
2022/01/20 10:32:42;;;;;;;5.23;4.13;;;3.00;99.90;;;;;;5014519;28;20196;-84
2022/01/20 10:35:10;;;;;;;5.03;4.63;;;3.10;99.90;;;;;;5022084;28;20377;-84
2022/01/20 10:37:38;;;;;;;9.07;6.90;;;3.10;99.90;;;;;;5018545;28;20262;-84
2022/01/20 10:40:09;;;;;;;6.33;5.10;;;3.10;99.90;;;;;;5022987;28;20592;-84
2022/01/20 10:42:38;;;;;;;7.57;5.77;;;3.10;99.90;;;;;;5044711;28;21109;-85
2022/01/20 10:45:05;;;;;;;7.57;5.00;;;3.10;99.90;;;;;;5021954;28;20179;-83
2022/01/20 10:47:33;;;;;;;5.57;5.07;;;3.20;99.90;;;;;;5020761;28;20176;-84
2022/01/20 10:50:18;;;;;;;5.43;4.93;;;3.80;99.90;;;;;;5010083;28;20188;-85
2022/01/20 10:52:44;;;;;;;5.43;4.93;;;3.40;99.90;;;;;;5014257;28;20202;-85
2022/01/20 10:55:26;;;;;;;5.27;4.87;;;3.50;99.90;;;;;;5034464;28;20526;-84
2022/01/20 10:57:53;;;;;;;5.17;4.67;;;;;;;;;;5024267;28;20550;-84
2022/01/20 11:00:21;;;;;;;5.63;5.13;;;3.70;99.90;;;;;;5022612;28;20192;-85
2022/01/20 11:02:54;;;;;;;4.53;4.13;;;3.80;99.90;;;;;;5016135;28;20223;-86
2022/01/20 11:05:20;;;;;;;4.43;4.03;;;3.90;99.90;;;;;;5016215;28;20183;-84
2022/01/20 11:07:47;;;;;;;5.00;4.53;;;4.80;99.90;;;;;;5011964;28;20173;-85
2022/01/20 11:10:14;;;;;;;4.27;3.87;;;4.10;99.90;;;;;;5024158;28;20177;-85
2022/01/20 11:12:47;;;;;;;4.73;4.30;;;3.40;99.90;;;;;;5011210;28;20226;-85
2022/01/20 11:15:24;;;;;;;5.03;4.43;;;4.50;99.90;;;;;;5018906;28;20213;-86
2022/01/20 11:17:55;;;;;;;4.60;4.20;;;4.10;99.90;;;;;;5030179;28;20231;-84
2022/01/20 11:20:24;;;;;;;6.03;5.43;;;4.80;99.90;;;;;;5012828;28;20178;-84
2022/01/20 11:22:58;;;;;;;5.57;5.07;;;4.10;99.90;;;;;;5030431;28;20172;-84
2022/01/20 11:25:28;;;;;;;4.70;4.23;;;4.60;99.90;;;;;;5031013;28;20259;-84
2022/01/20 11:28:08;;;;;;;4.67;4.27;;;4.80;99.90;;;;;;5020649;28;20240;-85
2022/01/20 11:30:42;;;;;;;4.27;3.87;;;4.30;99.90;;;;;;5012228;28;20199;-85
2022/01/20 11:33:16;;;;;;;4.47;4.10;;;4.40;99.90;;;;;;5024369;28;20220;-84
2022/01/20 11:36:11;;;;;;;4.23;3.73;;;4.60;99.90;;;;;;5029792;28;20201;-85
2022/01/20 11:38:50;;;;;;;4.27;3.40;;;4.50;99.90;;;;;;5019780;28;20185;-85
2022/01/20 11:41:43;;;;;;;3.20;2.90;;;4.50;99.90;;;;;;4988970;28;20263;-86
2022/01/20 11:44:33;;;;;;;3.70;3.07;;;4.60;99.90;;;;;;5023600;28;20245;-86
2022/01/20 11:47:32;;;;;;;3.33;2.97;;;4.60;99.90;;;;;;5019360;28;20202;-85
2022/01/20 11:50:26;;;;;;;3.27;2.80;;;4.60;99.90;;;;;;5013188;28;20174;-86
2022/01/20 11:52:52;;;;;;;5.33;3.30;;;4.80;99.90;;;;;;5021009;28;20259;-86
2022/01/20 11:55:47;;;;;;;5.33;2.97;;;5.80;99.90;;;;;;5009768;28;20639;-85
2022/01/20 11:58:20;;;;;;;3.80;2.93;;;4.80;99.90;;;;;;5008128;28;20235;-86
2022/01/20 12:04:46;;;;;;;2.90;2.60;;;3.80;99.90;;;;;;5014184;28;20224;-85
2022/01/20 12:07:38;;;;;;;3.47;2.10;;;5.10;99.90;;;;;;5009978;28;20201;-85
2022/01/20 12:10:13;;;;;;;2.00;1.80;;;5.40;99.90;;;;;;5010776;28;20174;-86
2022/01/20 12:12:47;;;;;;;3.90;3.50;;;5.00;99.90;;;;;;5009538;28;20257;-86
2022/01/20 12:15:25;;;;;;;4.00;3.17;;;5.10;99.90;;;;;;5018258;28;20176;-86
2022/01/20 12:17:58;;;;;;;4.57;2.17;;;5.10;99.90;;;;;;5015664;28;20564;-87
2022/01/20 12:20:42;;;;;;;3.80;2.10;;;5.30;99.90;;;;;;5038274;28;20165;-85
2022/01/20 12:23:08;;;;;;;2.87;1.23;;;5.40;99.90;;;;;;5008188;28;20175;-86
2022/01/20 12:25:36;;;;;;;3.73;1.50;;;5.30;99.90;;;;;;5033445;28;20201;-85
2022/01/20 12:28:11;;;;;;;2.10;1.10;;;5.40;99.90;;;;;;5020697;28;20185;-85
2022/01/20 12:30:47;;;;;;;6.67;1.30;;;5.40;99.90;;;;;;5011184;28;20654;-85
2022/01/20 12:36:37;;;;;;;;;;;;;;;;;;;;;
2022/01/20 12:39:06;;;;;;;2.10;1.00;;;6.40;99.90;;;;;;5036872;28;20182;-86
2022/01/20 12:41:35;;;;;;;4.63;1.10;;;5.70;99.90;;;;;;5019434;28;20178;-86
2022/01/20 12:44:16;;;;;;;2.83;1.10;;;6.10;99.90;;;;;;5034139;28;20184;-87
2022/01/20 12:47:24;;;;;;;2.33;0.90;;;5.80;99.90;;;;;;5021398;28;20230;-86
2022/01/20 12:50:02;;;;;;;4.47;1.17;;;6.00;99.90;;;;;;4991521;28;20186;-85
2022/01/20 12:52:31;;;;;;;2.87;1.20;;;5.80;99.90;;;;;;5025098;28;20221;-84
2022/01/20 12:55:17;;;;;;;3.17;1.17;;;5.90;99.90;;;;;;5019522;28;20288;-85
2022/01/20 12:57:46;;;;;;;3.10;1.13;;;5.90;99.90;;;;;;5018045;28;20194;-87
2022/01/20 13:00:14;;;;;;;3.30;1.40;;;5.80;99.90;;;;;;5034309;28;20177;-84
2022/01/20 13:06:29;;;;;;;3.80;1.60;;;5.60;99.90;;;;;;4951341;28;20750;-83
2022/01/20 13:09:42;;;;;;;4.17;2.00;;;5.50;99.90;;;;;;4963253;28;20625;-84
2022/01/20 13:12:10;;;;;;;3.73;1.70;;;5.70;99.90;;;;;;4984777;28;20256;-83
2022/01/20 13:14:41;;;;;;;2.43;1.97;;;5.40;99.90;;;;;;5009616;28;20175;-83
2022/01/20 13:17:23;;;;;;;2.90;2.10;;;5.40;99.90;;;;;;4991738;28;20194;-83
2022/01/20 13:19:50;;;;;;;2.33;1.90;;;5.30;99.90;;;;;;5017076;28;20176;-83
2022/01/20 13:22:23;;;;;;;3.80;2.20;;;5.70;99.90;;;;;;5020195;28;20185;-83
2022/01/20 13:24:49;;;;;;;2.47;2.17;;;5.10;99.90;;;;;;5044023;28;20155;-84
2022/01/20 13:27:15;;;;;;;2.93;2.60;;;5.00;99.90;;;;;;5021513;28;20188;-83
2022/01/20 13:29:47;;;;;;;3.03;2.40;;;5.10;99.90;;;;;;5037605;28;20186;-84
2022/01/20 13:32:13;;;;;;;3.80;2.27;;;5.10;99.90;;;;;;5026310;28;20177;-83
2022/01/20 13:34:50;;;;;;;4.33;3.20;;;5.20;99.90;;;;;;5021149;28;20170;-84
2022/01/20 13:37:16;;;;;;;4.67;2.03;;;5.80;99.90;;;;;;5015032;28;20271;-83
2022/01/20 13:39:44;;;;;;;4.43;2.53;;;5.20;99.90;;;;;;5038939;28;20192;-83
2022/01/20 13:42:24;;;;;;;4.63;2.00;;;5.20;99.90;;;;;;5036750;28;20180;-83
2022/01/20 13:45:13;;;;;;;1.87;1.70;;;5.30;99.90;;;;;;5026387;28;20170;-84
2022/01/20 13:47:59;;;;;;;3.67;1.60;;;5.30;99.90;;;;;;5021970;28;20185;-83
2022/01/20 13:50:34;;;;;;;2.33;1.17;;;5.40;99.90;;;;;;5029148;28;20173;-83
2022/01/20 13:53:10;;;;;;;2.83;0.83;;;5.50;99.90;;;;;;5029272;28;20579;-84
2022/01/20 13:55:37;;;;;;;2.20;1.40;;;5.40;99.90;;;;;;5018117;28;20240;-84
2022/01/20 13:58:04;;;;;;;2.27;1.23;;;5.40;99.90;;;;;;5004318;28;20193;-83
2022/01/20 14:00:32;;;;;;;2.00;1.20;;;5.40;99.90;;;;;;5014773;28;20236;-84
2022/01/20 14:02:58;;;;;;;2.47;1.20;;;5.20;99.90;;;;;;5022234;28;20248;-84
2022/01/20 14:05:30;;;;;;;3.97;1.47;;;5.20;99.90;;;;;;5036753;28;20182;-84
2022/01/20 14:07:58;;;;;;;5.57;1.90;;;5.40;99.90;;;;;;5036331;28;20236;-83
2022/01/20 14:10:24;;;;;;;4.00;1.33;;;5.70;99.90;;;;;;5032266;28;20542;-82
2022/01/20 14:12:50;;;;;;;5.20;1.43;;;5.10;99.90;;;;;;5011591;28;20210;-83
2022/01/20 14:15:16;;;;;;;3.77;2.20;;;5.20;99.90;;;;;;5015423;28;20217;-84
2022/01/20 14:17:49;;;;;;;3.40;2.00;;;5.20;99.90;;;;;;5033838;28;20182;-83
2022/01/20 14:20:15;;;;;;;5.40;1.93;;;5.20;99.90;;;;;;5015830;28;20684;-83
2022/01/20 14:22:41;;;;;;;5.63;2.50;;;5.20;99.90;;;;;;5033363;28;20185;-83
2022/01/20 14:25:10;;;;;;;4.00;2.40;;;5.20;99.90;;;;;;5033315;28;20181;-85
2022/01/20 14:27:36;;;;;;;2.33;1.60;;;5.10;99.90;;;;;;5037094;28;20309;-82
2022/01/20 14:30:07;;;;;;;4.13;1.90;;;5.20;99.90;;;;;;5035333;28;20217;-84
2022/01/20 14:32:32;;;;;;;3.77;2.33;;;5.20;99.90;;;;;;5028249;28;20206;-83
2022/01/20 14:34:58;;;;;;;2.50;1.70;;;5.80;99.90;;;;;;5032463;28;20186;-83
2022/01/20 14:37:24;;;;;;;5.07;1.67;;;5.20;99.90;;;;;;5010217;28;20209;-83
2022/01/20 14:39:49;;;;;;;5.37;2.03;;;5.20;99.90;;;;;;5011572;28;20188;-83
2022/01/20 14:42:15;;;;;;;3.87;2.37;;;5.20;99.90;;;;;;4998653;28;20175;-83
2022/01/20 14:44:47;;;;;;;5.77;2.77;;;5.10;99.90;;;;;;5010080;28;20608;-84
2022/01/20 14:47:13;;;;;;;4.30;2.93;;;5.20;99.90;;;;;;5032877;28;20205;-83
2022/01/20 14:49:39;;;;;;;2.87;2.30;;;5.20;99.90;;;;;;5027143;28;20194;-84